createdAt,value
2018-12-12T00:02:01.322Z,13.90
2018-12-12T00:04:28.811Z,14.28
2018-12-12T00:06:56.244Z,14.35
2018-12-12T00:09:23.653Z,13.30
2018-12-12T00:11:51.057Z,14.43
2018-12-12T00:14:18.463Z,12.68
2018-12-12T00:16:45.873Z,14.07
2018-12-12T00:19:13.330Z,11.60
2018-12-12T00:21:40.728Z,12.60
2018-12-12T00:24:08.130Z,12.75
2018-12-12T00:26:35.586Z,13.75
2018-12-12T00:29:03.027Z,12.40
2018-12-12T00:31:30.437Z,14.43
2018-12-12T00:33:57.824Z,13.45
2018-12-12T00:36:25.345Z,12.93
2018-12-12T00:38:52.740Z,13.25
2018-12-12T00:41:20.184Z,14.15
2018-12-12T00:43:47.601Z,12.07
2018-12-12T00:46:14.997Z,11.93
2018-12-12T00:48:42.408Z,12.80
2018-12-12T00:51:09.811Z,12.75
2018-12-12T00:53:37.211Z,14.13
2018-12-12T00:56:04.657Z,12.43
2018-12-12T00:58:32.048Z,13.85
2018-12-12T01:00:59.459Z,12.85
2018-12-12T01:03:26.947Z,11.73
2018-12-12T01:05:54.358Z,13.58
2018-12-12T01:08:21.752Z,12.65
2018-12-12T01:10:51.139Z,12.80
2018-12-12T01:13:18.544Z,12.37
2018-12-12T01:15:45.944Z,13.05
2018-12-12T01:18:13.352Z,13.15
2018-12-12T01:20:40.747Z,12.03
2018-12-12T01:23:08.161Z,12.43
2018-12-12T01:25:35.559Z,12.88
2018-12-12T01:28:03.085Z,11.93
2018-12-12T01:30:30.483Z,11.75
2018-12-12T01:32:57.880Z,12.68
2018-12-12T01:35:25.286Z,12.73
2018-12-12T01:37:52.691Z,12.33
2018-12-12T01:40:20.092Z,12.28
2018-12-12T01:42:47.493Z,12.60
2018-12-12T01:45:14.942Z,16.40
2018-12-12T01:47:42.338Z,13.53
2018-12-12T01:50:09.756Z,15.95
2018-12-12T01:52:37.757Z,15.90
2018-12-12T01:55:05.205Z,18.42
2018-12-12T01:57:32.596Z,17.30
2018-12-12T02:00:00.001Z,18.45
2018-12-12T02:02:27.404Z,17.70
2018-12-12T02:04:54.816Z,20.32
2018-12-12T02:07:22.204Z,20.48
2018-12-12T02:09:49.600Z,19.15
2018-12-12T02:12:16.993Z,18.02
2018-12-12T02:14:44.395Z,20.32
2018-12-12T02:17:11.850Z,18.90
2018-12-12T02:19:39.309Z,18.37
2018-12-12T02:22:06.772Z,18.70
2018-12-12T02:24:34.165Z,19.77
2018-12-12T02:27:01.578Z,19.45
2018-12-12T02:29:29.020Z,19.70
2018-12-12T02:31:56.430Z,20.43
2018-12-12T02:34:23.823Z,20.77
2018-12-12T02:36:51.221Z,20.52
2018-12-12T02:39:18.628Z,21.40
2018-12-12T02:41:46.019Z,19.67
2018-12-12T02:44:13.429Z,20.97
2018-12-12T02:46:40.870Z,19.75
2018-12-12T02:49:08.283Z,21.60
2018-12-12T02:51:35.681Z,20.00
2018-12-12T02:54:03.116Z,20.65
2018-12-12T02:56:30.528Z,20.48
2018-12-12T02:58:57.924Z,22.20
2018-12-12T03:01:25.373Z,21.37
2018-12-12T03:03:53.226Z,20.92
2018-12-12T03:06:20.619Z,19.62
2018-12-12T03:08:48.034Z,21.00
2018-12-12T03:11:17.444Z,19.25
2018-12-12T03:13:44.857Z,20.48
2018-12-12T03:16:12.249Z,19.23
2018-12-12T03:18:39.647Z,19.67
2018-12-12T03:21:07.056Z,20.08
2018-12-12T03:23:34.460Z,18.95
2018-12-12T03:26:01.863Z,18.70
2018-12-12T03:28:29.546Z,20.10
2018-12-12T03:30:56.950Z,19.90
2018-12-12T03:33:24.348Z,19.32
2018-12-12T03:35:51.761Z,19.73
2018-12-12T03:38:19.169Z,18.25
2018-12-12T03:40:46.821Z,19.45
2018-12-12T03:43:14.219Z,16.60
2018-12-12T03:45:41.635Z,18.73
2018-12-12T03:48:09.124Z,18.27
2018-12-12T03:50:36.525Z,18.95
2018-12-12T03:53:04.020Z,18.40
2018-12-12T03:55:31.409Z,17.95
2018-12-12T03:57:59.100Z,18.70
2018-12-12T04:00:26.496Z,19.45
2018-12-12T04:02:53.898Z,17.90
2018-12-12T04:05:21.313Z,19.40
2018-12-12T04:07:48.715Z,19.80
2018-12-12T04:10:16.164Z,19.70
2018-12-12T04:12:43.604Z,19.80
2018-12-12T04:15:11.013Z,19.60
2018-12-12T04:17:38.555Z,20.20
2018-12-12T04:20:06.247Z,20.50
2018-12-12T04:22:33.984Z,20.27
2018-12-12T04:25:01.740Z,20.52
2018-12-12T04:27:29.145Z,19.90
2018-12-12T04:29:56.620Z,19.80
2018-12-12T04:32:24.019Z,20.02
2018-12-12T04:34:51.419Z,19.12
2018-12-12T04:37:18.828Z,20.17
2018-12-12T04:39:46.232Z,20.27
2018-12-12T04:42:13.715Z,20.08
2018-12-12T04:44:41.109Z,19.42
2018-12-12T04:47:08.504Z,21.02
2018-12-12T04:49:35.918Z,18.12
2018-12-12T04:52:03.365Z,19.85
2018-12-12T04:54:30.760Z,19.00
2018-12-12T04:56:58.170Z,18.55
2018-12-12T04:59:25.741Z,19.10
2018-12-12T05:01:53.204Z,18.73
2018-12-12T05:04:20.732Z,17.87
2018-12-12T05:06:48.108Z,19.35
2018-12-12T05:09:15.500Z,20.30
2018-12-12T05:11:42.959Z,19.82
2018-12-12T05:16:45.909Z,18.10
2018-12-12T05:19:13.301Z,17.87
2018-12-12T05:21:40.721Z,18.52
2018-12-12T05:24:08.120Z,18.87
2018-12-12T05:26:35.532Z,18.60
2018-12-12T05:29:02.937Z,17.02
2018-12-12T05:31:30.445Z,18.90
2018-12-12T05:33:57.894Z,19.30
2018-12-12T05:36:25.334Z,21.23
2018-12-12T05:38:52.876Z,19.98
2018-12-12T05:41:20.320Z,18.75
2018-12-12T05:43:47.716Z,20.23
2018-12-12T05:46:15.168Z,18.32
2018-12-12T05:48:42.565Z,19.50
2018-12-12T05:51:10.021Z,20.43
2018-12-12T05:53:37.416Z,19.00
2018-12-12T05:56:04.902Z,18.70
2018-12-12T05:58:32.294Z,18.80
2018-12-12T06:00:59.696Z,18.35
2018-12-12T06:03:27.109Z,19.55
2018-12-12T06:05:54.512Z,20.88
2018-12-12T06:08:21.906Z,20.92
2018-12-12T06:10:49.300Z,20.23
2018-12-12T06:13:16.781Z,20.52
2018-12-12T06:15:44.181Z,19.57
2018-12-12T06:18:11.592Z,18.82
2018-12-12T06:20:38.993Z,20.88
2018-12-12T06:23:06.398Z,18.52
2018-12-12T06:25:33.790Z,20.57
2018-12-12T06:28:01.191Z,20.50
2018-12-12T06:30:29.156Z,18.73
2018-12-12T06:32:56.547Z,18.73
2018-12-12T06:35:23.941Z,17.85
2018-12-12T06:37:51.332Z,17.70
2018-12-12T06:40:18.733Z,17.80
2018-12-12T06:42:46.141Z,17.05
2018-12-12T06:45:13.579Z,19.02
2018-12-12T06:47:40.969Z,16.80
2018-12-12T06:50:08.412Z,16.35
2018-12-12T06:52:35.816Z,17.80
2018-12-12T06:55:03.376Z,17.42
2018-12-12T06:57:30.773Z,14.90
2018-12-12T06:59:58.207Z,17.00
2018-12-12T07:02:25.609Z,17.32
2018-12-12T07:04:53.058Z,18.70
2018-12-12T07:07:20.720Z,18.30
2018-12-12T07:09:48.109Z,19.62
2018-12-12T07:12:15.544Z,20.32
2018-12-12T07:14:42.940Z,18.23
2018-12-12T07:17:10.340Z,18.92
2018-12-12T07:19:37.782Z,18.87
2018-12-12T07:22:05.223Z,19.48
2018-12-12T07:24:32.628Z,21.57
2018-12-12T07:27:00.051Z,22.10
2018-12-12T07:29:27.454Z,22.62
2018-12-12T07:31:54.860Z,23.40
2018-12-12T07:34:22.274Z,22.48
2018-12-12T07:36:49.648Z,23.70
2018-12-12T07:39:18.061Z,22.65
2018-12-12T07:41:45.772Z,20.80
2018-12-12T07:44:13.188Z,21.37
2018-12-12T07:46:40.584Z,21.12
2018-12-12T07:49:08.021Z,21.90
2018-12-12T07:51:35.417Z,22.80
2018-12-12T07:54:02.860Z,21.87
2018-12-12T07:56:30.272Z,21.60
2018-12-12T07:58:57.669Z,21.37
2018-12-12T08:01:25.054Z,21.00
2018-12-12T08:03:52.601Z,21.27
2018-12-12T08:06:20.004Z,22.27
2018-12-12T08:08:47.416Z,21.42
2018-12-12T08:11:14.819Z,21.77
2018-12-12T08:13:42.265Z,23.95
2018-12-12T08:16:09.684Z,23.52
2018-12-12T08:18:37.229Z,24.43
2018-12-12T08:21:04.632Z,27.32
2018-12-12T08:23:32.084Z,24.35
2018-12-12T08:25:59.544Z,25.95
2018-12-12T08:28:26.958Z,27.13
2018-12-12T08:30:54.348Z,25.17
2018-12-12T08:33:21.742Z,25.12
2018-12-12T08:35:49.240Z,25.50
2018-12-12T08:38:16.653Z,27.10
2018-12-12T08:40:44.085Z,24.55
2018-12-12T08:43:11.492Z,28.62
2018-12-12T08:45:38.897Z,25.92
2018-12-12T08:48:06.297Z,24.85
2018-12-12T08:50:33.703Z,30.40
2018-12-12T08:53:01.112Z,30.90
2018-12-12T08:55:28.528Z,29.27
2018-12-12T08:57:55.921Z,28.45
2018-12-12T09:00:23.405Z,23.85
2018-12-12T09:02:50.816Z,25.20
2018-12-12T09:05:18.283Z,26.37
2018-12-12T09:07:45.683Z,29.23
2018-12-12T09:10:13.069Z,27.85
2018-12-12T09:12:40.508Z,28.23
2018-12-12T09:15:08.014Z,29.95
2018-12-12T09:17:35.433Z,27.37
2018-12-12T09:20:03.549Z,28.32
2018-12-12T09:22:30.945Z,32.17
2018-12-12T09:24:58.340Z,32.03
2018-12-12T09:27:25.753Z,29.85
2018-12-12T09:29:53.158Z,29.45
2018-12-12T09:32:20.600Z,31.10
2018-12-12T09:34:48.000Z,29.92
2018-12-12T09:37:15.397Z,31.30
2018-12-12T09:39:42.815Z,33.38
2018-12-12T09:42:10.212Z,33.78
2018-12-12T09:44:37.608Z,33.90
2018-12-12T09:47:05.122Z,34.75
2018-12-12T09:49:32.532Z,34.05
2018-12-12T09:51:59.923Z,35.73
2018-12-12T09:54:27.326Z,33.48
2018-12-12T09:56:54.725Z,32.40
2018-12-12T09:59:22.141Z,30.00
2018-12-12T10:01:49.541Z,32.30
2018-12-12T10:04:16.942Z,32.00
2018-12-12T10:06:44.327Z,34.05
2018-12-12T10:09:11.735Z,34.50
2018-12-12T10:11:39.144Z,31.42
2018-12-12T10:14:06.545Z,34.08
2018-12-12T10:16:33.991Z,32.13
2018-12-12T10:19:01.385Z,32.50
2018-12-12T10:21:28.874Z,37.03
2018-12-12T10:23:56.277Z,34.18
2018-12-12T10:26:23.694Z,34.10
2018-12-12T10:28:51.168Z,33.92
2018-12-12T10:31:18.572Z,32.17
2018-12-12T10:33:45.969Z,33.05
2018-12-12T10:36:13.380Z,32.30
2018-12-12T10:38:40.775Z,33.20
2018-12-12T10:41:08.185Z,31.23
2018-12-12T10:43:36.488Z,31.50
2018-12-12T10:46:03.959Z,32.38
2018-12-12T10:48:31.356Z,31.05
2018-12-12T10:50:58.774Z,32.70
2018-12-12T10:53:26.172Z,32.90
2018-12-12T10:55:53.576Z,33.08
2018-12-12T10:58:20.990Z,31.82
2018-12-12T11:03:59.618Z,28.52
2018-12-12T11:06:27.016Z,22.93
2018-12-12T11:08:54.434Z,24.95
2018-12-12T11:11:21.834Z,24.40
2018-12-12T11:13:49.271Z,25.62
2018-12-12T11:16:16.679Z,27.27
2018-12-12T11:18:44.181Z,25.40
2018-12-12T11:21:11.651Z,27.05
2018-12-12T11:23:39.049Z,24.40
2018-12-12T11:26:06.534Z,23.00
2018-12-12T11:28:33.925Z,24.67
2018-12-12T11:31:03.388Z,27.15
2018-12-12T11:33:30.960Z,25.00
2018-12-12T11:35:58.353Z,25.92
2018-12-12T11:38:25.773Z,27.20
2018-12-12T11:40:53.168Z,26.23
2018-12-12T11:43:20.724Z,26.40
2018-12-12T11:45:48.133Z,24.50
2018-12-12T11:48:15.577Z,24.75
2018-12-12T11:50:42.996Z,23.87
2018-12-12T11:53:10.392Z,22.80
2018-12-12T11:55:37.789Z,25.23
2018-12-12T11:58:05.200Z,25.52
2018-12-12T12:00:32.640Z,24.60
2018-12-12T12:03:00.056Z,26.35
2018-12-12T12:05:27.455Z,22.70
2018-12-12T12:07:54.909Z,22.95
2018-12-12T12:10:22.311Z,25.65
2018-12-12T12:12:50.626Z,23.52
2018-12-12T12:15:18.025Z,22.30
2018-12-12T12:17:45.433Z,22.77
2018-12-12T12:20:12.881Z,24.47
2018-12-12T12:22:40.280Z,22.50
2018-12-12T12:25:07.859Z,23.38
2018-12-12T12:27:35.269Z,22.42
2018-12-12T12:30:02.820Z,25.00
2018-12-12T12:32:30.224Z,22.52
2018-12-12T12:34:57.641Z,24.02
2018-12-12T12:37:25.045Z,24.60
2018-12-12T12:39:52.441Z,23.95
2018-12-12T12:42:19.853Z,23.40
2018-12-12T12:44:47.309Z,23.40
2018-12-12T12:47:14.717Z,22.55
2018-12-12T12:49:42.128Z,26.75
2018-12-12T12:52:09.529Z,25.65
2018-12-12T12:54:36.948Z,25.80
2018-12-12T12:57:04.374Z,25.20
2018-12-12T12:59:31.778Z,24.75
2018-12-12T13:01:59.190Z,24.72
2018-12-12T13:04:26.609Z,25.08
2018-12-12T13:06:54.017Z,24.90
2018-12-12T13:09:21.424Z,27.02
2018-12-12T13:11:48.874Z,26.33
2018-12-12T13:14:16.401Z,24.47
2018-12-12T13:16:43.968Z,25.25
2018-12-12T13:19:11.389Z,24.02
2018-12-12T13:21:39.394Z,23.40
2018-12-12T13:24:06.899Z,24.40
2018-12-12T13:26:34.408Z,23.20
2018-12-12T13:29:01.800Z,24.55
2018-12-12T13:31:29.204Z,26.52
2018-12-12T13:33:56.670Z,24.30
2018-12-12T13:36:24.060Z,24.98
2018-12-12T13:38:51.516Z,25.70
2018-12-12T13:41:18.935Z,24.55
2018-12-12T13:43:46.327Z,24.67
2018-12-12T13:46:13.732Z,25.48
2018-12-12T13:48:41.165Z,25.37
2018-12-12T13:51:08.607Z,23.25
2018-12-12T13:53:36.008Z,24.75
2018-12-12T13:56:03.421Z,24.90
2018-12-12T13:58:30.944Z,25.55
2018-12-12T14:00:58.352Z,25.20
2018-12-12T14:03:25.803Z,26.30
2018-12-12T14:05:53.206Z,23.47
2018-12-12T14:08:20.604Z,24.77
2018-12-12T14:10:48.017Z,24.75
2018-12-12T14:13:15.417Z,24.85
2018-12-12T14:15:42.812Z,24.47
2018-12-12T14:18:10.285Z,25.80
2018-12-12T14:20:37.690Z,25.95
2018-12-12T14:23:05.141Z,25.80
2018-12-12T14:25:32.560Z,27.00
2018-12-12T14:27:59.956Z,24.80
2018-12-12T14:30:28.269Z,23.15
2018-12-12T14:32:55.700Z,22.87
2018-12-12T14:35:23.096Z,22.82
2018-12-12T14:37:50.493Z,20.77
2018-12-12T14:40:17.911Z,20.25
2018-12-12T14:42:45.300Z,20.70
2018-12-12T14:45:12.740Z,21.55
2018-12-12T14:47:40.152Z,23.02
2018-12-12T14:50:07.647Z,23.87
2018-12-12T14:52:35.045Z,19.87
2018-12-12T14:55:02.457Z,19.50
2018-12-12T14:57:29.859Z,20.02
2018-12-12T14:59:57.254Z,22.20
2018-12-12T15:02:24.673Z,20.15
2018-12-12T15:04:52.081Z,21.30
2018-12-12T15:07:19.478Z,18.45
2018-12-12T15:09:46.900Z,21.93
2018-12-12T15:12:14.294Z,21.75
2018-12-12T15:14:41.749Z,23.60
2018-12-12T15:17:09.179Z,20.23
2018-12-12T15:19:36.552Z,21.95
2018-12-12T15:22:04.204Z,19.82
2018-12-12T15:24:31.628Z,19.73
2018-12-12T15:26:59.046Z,21.00
2018-12-12T15:29:26.444Z,22.10
2018-12-12T15:31:53.838Z,20.97
2018-12-12T15:34:21.248Z,21.10
2018-12-12T15:36:48.728Z,20.55
2018-12-12T15:39:16.120Z,21.20
2018-12-12T15:41:43.663Z,21.90
2018-12-12T15:44:11.065Z,20.62
2018-12-12T15:46:38.475Z,23.57
2018-12-12T15:49:05.886Z,22.02
2018-12-12T15:51:33.329Z,21.93
2018-12-12T15:54:00.740Z,17.95
2018-12-12T15:56:28.140Z,17.57
2018-12-12T15:58:55.536Z,17.00
2018-12-12T16:01:22.953Z,19.52
2018-12-12T16:03:50.350Z,20.27
2018-12-12T16:06:17.801Z,20.12
2018-12-12T16:08:45.220Z,21.10
2018-12-12T16:11:12.620Z,19.07
2018-12-12T16:13:40.015Z,22.40
2018-12-12T16:16:09.353Z,24.95
2018-12-12T16:18:36.763Z,23.05
2018-12-12T16:21:04.201Z,22.22
2018-12-12T16:23:31.608Z,24.10
2018-12-12T16:25:59.006Z,25.50
2018-12-12T16:28:26.404Z,22.90
2018-12-12T16:30:53.816Z,24.23
2018-12-12T16:33:21.224Z,24.02
2018-12-12T16:35:48.696Z,24.10
2018-12-12T16:38:16.116Z,25.25
2018-12-12T16:40:43.566Z,25.95
2018-12-12T16:43:10.964Z,25.52
2018-12-12T16:45:38.378Z,26.93
2018-12-12T16:48:05.834Z,26.17
2018-12-12T16:50:33.237Z,26.23
2018-12-12T16:53:00.652Z,24.63
2018-12-12T16:55:28.044Z,24.50
2018-12-12T16:57:55.437Z,26.37
2018-12-12T17:00:22.865Z,26.40
2018-12-12T17:02:50.276Z,23.92
2018-12-12T17:05:17.732Z,25.65
2018-12-12T17:07:45.140Z,26.23
2018-12-12T17:10:12.669Z,23.45
2018-12-12T17:12:40.896Z,24.25
2018-12-12T17:15:08.404Z,23.20
2018-12-12T17:17:35.848Z,25.72
2018-12-12T17:20:04.050Z,23.62
2018-12-12T17:22:31.477Z,22.70
2018-12-12T17:24:58.877Z,25.50
2018-12-12T17:27:26.274Z,24.07
2018-12-12T17:29:53.684Z,26.50
2018-12-12T17:32:21.087Z,23.32
2018-12-12T17:34:48.488Z,23.20
2018-12-12T17:37:15.908Z,23.15
2018-12-12T17:39:43.301Z,20.90
2018-12-12T17:42:10.722Z,23.92
2018-12-12T17:44:38.121Z,24.60
2018-12-12T17:47:05.535Z,26.90
2018-12-12T17:49:32.930Z,25.75
2018-12-12T17:52:00.325Z,24.30
2018-12-12T17:54:27.735Z,24.82
2018-12-12T17:56:55.136Z,23.00
2018-12-12T17:59:22.539Z,24.18
2018-12-12T18:01:49.988Z,24.20
2018-12-12T18:04:17.464Z,23.60
2018-12-12T18:06:44.860Z,25.05
2018-12-12T18:09:12.318Z,24.82
2018-12-12T18:11:39.711Z,24.60
2018-12-12T18:14:07.116Z,21.37
2018-12-12T18:16:34.531Z,22.15
2018-12-12T18:19:01.924Z,20.70
2018-12-12T18:21:29.321Z,22.87
2018-12-12T18:23:56.734Z,21.95
2018-12-12T18:26:24.129Z,22.95
2018-12-12T18:28:51.530Z,22.13
2018-12-12T18:31:18.940Z,21.33
2018-12-12T18:33:46.337Z,20.92
2018-12-12T18:36:13.736Z,20.45
2018-12-12T18:38:41.144Z,21.15
2018-12-12T18:41:08.638Z,17.90
2018-12-12T18:43:36.079Z,20.20
2018-12-12T18:46:03.525Z,18.27
2018-12-12T18:48:30.918Z,18.15
2018-12-12T18:50:58.346Z,17.00
2018-12-12T18:53:25.721Z,18.75
2018-12-12T18:55:53.130Z,20.17
2018-12-12T18:58:20.540Z,19.20
2018-12-12T19:00:47.932Z,17.35
2018-12-12T19:03:15.330Z,17.98
2018-12-12T19:05:42.875Z,17.32
2018-12-12T19:08:10.332Z,19.55
2018-12-12T19:10:37.739Z,18.12
2018-12-12T19:13:05.191Z,15.38
2018-12-12T19:15:32.647Z,16.82
2018-12-12T19:18:00.131Z,14.43
2018-12-12T19:20:27.611Z,15.15
2018-12-12T19:22:55.004Z,14.70
2018-12-12T19:25:22.406Z,13.55
2018-12-12T19:27:49.814Z,14.53
2018-12-12T19:30:17.223Z,13.08
2018-12-12T19:32:44.670Z,14.50
2018-12-12T19:35:12.087Z,14.28
2018-12-12T19:37:39.533Z,13.30
2018-12-12T19:40:07.372Z,12.90
2018-12-12T19:42:34.787Z,14.10
2018-12-12T19:45:02.278Z,11.80
2018-12-12T19:47:29.769Z,14.65
2018-12-12T19:49:57.184Z,13.95
2018-12-12T19:52:24.642Z,12.60
2018-12-12T19:54:52.084Z,13.35
2018-12-12T19:57:19.505Z,13.00
2018-12-12T19:59:47.003Z,13.78
2018-12-12T20:02:14.466Z,13.80
2018-12-12T20:04:41.906Z,13.28
2018-12-12T20:07:09.347Z,13.38
2018-12-12T20:09:37.839Z,12.88
2018-12-12T20:12:05.248Z,13.25
2018-12-12T20:14:32.665Z,12.78
2018-12-12T20:17:00.053Z,13.58
2018-12-12T20:19:27.630Z,13.85
2018-12-12T20:21:55.269Z,13.62
2018-12-12T20:24:22.749Z,12.18
2018-12-12T20:26:50.233Z,12.50
2018-12-12T20:29:17.680Z,12.82
2018-12-12T20:31:45.208Z,13.00
2018-12-12T20:34:12.682Z,14.23
2018-12-12T20:36:40.110Z,13.75
2018-12-12T20:39:07.649Z,13.85
2018-12-12T20:41:35.064Z,12.50
2018-12-12T20:44:02.513Z,13.53
2018-12-12T20:46:29.940Z,12.68
2018-12-12T20:48:57.447Z,12.03
2018-12-12T20:51:24.836Z,13.48
2018-12-12T20:53:52.266Z,12.33
2018-12-12T20:56:19.678Z,13.20
2018-12-12T20:58:47.062Z,13.53
2018-12-12T21:01:14.479Z,12.80
2018-12-12T21:03:41.892Z,13.32
2018-12-12T21:06:09.321Z,14.25
2018-12-12T21:08:36.740Z,13.43
2018-12-12T21:11:04.132Z,14.68
2018-12-12T21:13:31.545Z,13.43
2018-12-12T21:15:58.950Z,11.88
2018-12-12T21:18:26.360Z,12.80
2018-12-12T21:20:53.756Z,13.10
2018-12-12T21:23:21.183Z,13.43
2018-12-12T21:25:48.965Z,13.40
2018-12-12T21:28:16.349Z,14.90
2018-12-12T21:30:43.761Z,14.13
2018-12-12T21:33:11.152Z,13.22
2018-12-12T21:35:38.557Z,13.05
2018-12-12T21:38:06.017Z,14.55
2018-12-12T21:40:33.405Z,14.55
2018-12-12T21:43:00.823Z,14.58
2018-12-12T21:45:28.437Z,14.30
2018-12-12T21:47:55.886Z,14.58
2018-12-12T21:50:23.328Z,14.53
2018-12-12T21:52:50.753Z,13.45
2018-12-12T21:55:18.168Z,14.25
2018-12-12T21:57:45.564Z,13.78
2018-12-12T22:00:13.023Z,14.65
2018-12-12T22:02:40.441Z,14.45
2018-12-12T22:05:07.944Z,13.50
2018-12-12T22:07:35.417Z,14.38
2018-12-12T22:10:02.990Z,14.93
2018-12-12T22:12:30.385Z,15.38
2018-12-12T22:14:57.796Z,14.18
2018-12-12T22:17:26.098Z,14.80
2018-12-12T22:19:53.488Z,14.43
2018-12-12T22:22:20.901Z,14.28
2018-12-12T22:24:48.305Z,14.93
2018-12-12T22:27:15.700Z,15.05
2018-12-12T22:29:43.117Z,14.60
2018-12-12T22:32:10.516Z,13.93
2018-12-12T22:34:37.928Z,13.70
2018-12-12T22:37:05.338Z,15.60
2018-12-12T22:39:32.731Z,14.80
2018-12-12T22:42:00.132Z,14.53
2018-12-12T22:44:27.536Z,15.20
2018-12-12T22:46:54.970Z,15.10
2018-12-12T22:49:22.469Z,15.03
2018-12-12T22:51:49.887Z,15.45
2018-12-12T22:54:17.422Z,15.68
2018-12-12T22:56:44.866Z,16.57
2018-12-12T22:59:12.276Z,15.43
2018-12-12T23:01:39.670Z,17.60
2018-12-12T23:04:07.071Z,16.05
2018-12-12T23:06:34.484Z,16.12
2018-12-12T23:09:01.892Z,15.70
2018-12-12T23:11:29.371Z,16.07
2018-12-12T23:13:56.859Z,16.27
2018-12-12T23:16:24.259Z,15.80
2018-12-12T23:18:51.680Z,13.98
2018-12-12T23:21:19.098Z,16.55
2018-12-12T23:23:46.484Z,16.05
2018-12-12T23:26:13.893Z,15.95
2018-12-12T23:28:41.305Z,16.23
2018-12-12T23:31:08.699Z,16.05
2018-12-12T23:33:36.154Z,15.95
2018-12-12T23:36:03.566Z,15.88
2018-12-12T23:38:30.965Z,15.20
2018-12-12T23:40:58.453Z,16.15
2018-12-12T23:43:25.860Z,15.38
2018-12-12T23:45:53.250Z,15.93
2018-12-12T23:48:20.642Z,17.07
2018-12-12T23:50:48.053Z,15.18
2018-12-12T23:53:15.457Z,15.97
2018-12-12T23:55:42.860Z,16.30
2018-12-12T23:58:10.270Z,16.60
